Tumacacori, AZ (85640)

5:16 AM MST on April 26, 2017 (GMT -0700)
TrailsHead at Barrio de Tubac | | Change Station

Elev 3222 ft 31.60 °N, 111.05 °W | Updated 5 seconds ago

Clear
Clear
46.6 °F
Feels Like 47 °F
N
1.6
Wind Variable Wind from SSW
Gusts 4.0 mph

Today
High -- | Low -- °F
--% Chance of Precip.
Yesterday
High -- | Low -- °F
Precip. -- in
Pressure 29.77 in
Visibility 10.0 miles
Clouds Clear
Windchill 47 °F
Dew Point 37 °F
Humidity 69%
Rainfall 0.00 in
Snow Depth Not available.
5:43 AM 7:00 PM
New Moon, 0% visible
METAR KOLS 261154Z AUTO 07003KT 10SM CLR 09/02 A2991 RMK AO2 SLP079 T00940017 10144 20083 55000
Pressure 29.77 in
Visibility 10.0 miles
Clouds Clear
Windchill 47 °F
Dew Point 37 °F
Humidity 69%
Rainfall 0.00 in
Snow Depth Not available.
5:43 AM 7:00 PM
New Moon, 0% visible
METAR KOLS 261154Z AUTO 07003KT 10SM CLR 09/02 A2991 RMK AO2 SLP079 T00940017 10144 20083 55000

Get Severe Weather Alerts

Thanks for signing up!

Be on the lookout for a verification email in your inbox.

You'll start receiving the daily forecast at 8 AM.

×

10-Day Weather Forecast

Almanac

Astronomy

Apr. 26, 2017 Rise Set
Actual Time
Civil Twilight
Nautical Twilight
Astronomical Twilight
Moon
Length of Visible Light
Length of Day
Tomorrow will be .
, % of the Moon is Illuminated

Today's Extremes

State Highs State Lows

Community

WunderPhotos

WunderBlog® & News

Nearby

Air Quality

  Air Quality AQ Index Pollutant
Not available.

Snow Depth

Station Depth Elevation

Earthquake Activity

City Distance Mag. Time & Date
Minimum magnitude displayed is 2.5.

Coastal Water Temperatures

Place Temperature

Stations

Nearby Weather Stations

Station Location Temp. Windchill Dew Point Humidity Wind Precip. Elev Updated Type
                   

Watches & Warnings

There are currently no watches in effect.